createdAt,value
2023-05-05T00:00:21.473Z,100644.83
2023-05-05T00:03:09.952Z,100646.83
2023-05-05T00:05:38.354Z,100644.48
2023-05-05T00:08:06.754Z,100643.02
2023-05-05T00:10:35.201Z,100645.15
2023-05-05T00:13:03.705Z,100646.48
2023-05-05T00:15:32.283Z,100645.54
2023-05-05T00:18:00.706Z,100641.12
2023-05-05T00:20:29.148Z,100642.91
2023-05-05T00:22:57.560Z,100648.80
2023-05-05T00:25:25.912Z,100649.80
2023-05-05T00:27:54.242Z,100651.27
2023-05-05T00:30:22.804Z,100652.91
2023-05-05T00:32:51.192Z,100649.90
2023-05-05T00:35:19.558Z,100647.76
2023-05-05T00:37:49.216Z,100642.64
2023-05-05T00:40:18.715Z,100642.39
2023-05-05T00:42:50.777Z,100646.77
2023-05-05T00:45:20.551Z,100643.65
2023-05-05T00:47:58.916Z,100643.50
2023-05-05T00:50:30.598Z,100643.48
2023-05-05T00:53:06.157Z,100641.86
2023-05-05T00:55:35.579Z,100641.30
2023-05-05T00:58:04.691Z,100636.69
2023-05-05T01:00:34.511Z,100638.39
2023-05-05T01:03:03.421Z,100638.97
2023-05-05T01:05:53.549Z,100632.90
2023-05-05T01:08:42.096Z,100635.96
2023-05-05T01:11:21.560Z,100633.84
2023-05-05T01:14:12.074Z,100629.52
2023-05-05T01:16:59.190Z,100629.77
2023-05-05T01:19:48.897Z,100629.88
2023-05-05T01:22:22.998Z,100631.66
2023-05-05T01:25:18.899Z,100626.41
2023-05-05T01:28:19.177Z,100622.29
2023-05-05T01:31:15.624Z,100614.70
2023-05-05T01:33:59.054Z,100614.08
2023-05-05T01:36:42.316Z,100611.06
2023-05-05T01:39:16.607Z,100609.05
2023-05-05T01:41:51.293Z,100608.19
2023-05-05T01:44:20.373Z,100609.55
2023-05-05T01:46:51.957Z,100608.80
2023-05-05T01:49:20.723Z,100607.18
2023-05-05T01:51:49.994Z,100605.19
2023-05-05T01:54:19.240Z,100606.85
2023-05-05T01:56:49.192Z,100603.27
2023-05-05T01:59:20.385Z,100600.94
2023-05-05T02:01:50.413Z,100604.09
2023-05-05T02:04:22.814Z,100601.52
2023-05-05T02:06:53.276Z,100603.96
2023-05-05T02:09:25.050Z,100603.80
2023-05-05T02:11:54.419Z,100602.16
2023-05-05T02:14:26.612Z,100604.04
2023-05-05T02:16:57.085Z,100605.92
2023-05-05T02:19:34.291Z,100607.11
2023-05-05T02:22:03.048Z,100605.92
2023-05-05T02:24:31.808Z,100603.23
2023-05-05T02:27:03.920Z,100606.05
2023-05-05T02:29:36.906Z,100606.14
2023-05-05T02:36:04.294Z,100600.52
2023-05-05T02:38:33.437Z,100599.13
2023-05-05T02:41:09.385Z,100597.77
2023-05-05T02:43:40.950Z,100598.87
2023-05-05T02:46:09.373Z,100600.28
2023-05-05T02:50:57.242Z,100600.04
2023-05-05T02:53:30.226Z,100602.89
2023-05-05T02:56:22.781Z,100602.50
2023-05-05T02:59:08.934Z,100600.73
2023-05-05T03:01:56.820Z,100601.37
2023-05-05T03:04:52.982Z,100601.55
2023-05-05T03:07:31.052Z,100605.34
2023-05-05T03:10:18.840Z,100609.38
2023-05-05T03:13:02.196Z,100613.09
2023-05-05T03:15:41.829Z,100612.99
2023-05-05T03:18:11.579Z,100616.38
2023-05-05T03:20:40.904Z,100613.30
2023-05-05T03:23:10.190Z,100613.23
2023-05-05T03:25:49.850Z,100619.14
2023-05-05T03:28:18.183Z,100619.24
2023-05-05T03:30:46.551Z,100618.13
2023-05-05T03:33:16.360Z,100620.55
2023-05-05T03:35:44.719Z,100624.58
2023-05-05T03:38:13.075Z,100626.66
2023-05-05T03:40:44.596Z,100627.85
2023-05-05T03:43:13.236Z,100626.75
2023-05-05T03:45:41.625Z,100628.33
2023-05-05T03:48:10.070Z,100625.80
2023-05-05T03:50:38.564Z,100628.19
2023-05-05T03:53:06.929Z,100626.60
2023-05-05T03:55:35.294Z,100626.49
2023-05-05T03:58:08.679Z,100624.71
2023-05-05T04:00:36.991Z,100626.64
2023-05-05T04:03:05.986Z,100628.00
2023-05-05T04:05:34.585Z,100623.96
2023-05-05T04:08:03.474Z,100629.41
2023-05-05T04:10:32.179Z,100635.45
2023-05-05T04:13:00.904Z,100636.27
2023-05-05T04:15:30.367Z,100639.55
2023-05-05T04:17:58.722Z,100637.80
2023-05-05T04:20:27.120Z,100643.85
2023-05-05T04:22:55.497Z,100641.42
2023-05-05T04:25:23.942Z,100643.63
2023-05-05T04:27:52.271Z,100641.48
2023-05-05T04:30:20.716Z,100640.56
2023-05-05T04:32:49.113Z,100630.96
2023-05-05T04:35:17.629Z,100627.95
2023-05-05T04:37:46.130Z,100629.86
2023-05-05T04:40:14.650Z,100631.76
2023-05-05T04:42:43.021Z,100633.25
2023-05-05T04:45:11.851Z,100642.49
2023-05-05T04:47:40.804Z,100644.67
2023-05-05T04:50:11.486Z,100649.19
2023-05-05T04:52:40.083Z,100646.06
2023-05-05T04:55:10.721Z,100649.84
2023-05-05T04:57:39.184Z,100650.11
2023-05-05T05:00:09.737Z,100649.23
2023-05-05T05:02:38.560Z,100647.23
2023-05-05T05:05:07.805Z,100648.85
2023-05-05T05:07:36.223Z,100645.86
2023-05-05T05:10:05.247Z,100647.11
2023-05-05T05:12:33.838Z,100649.73
2023-05-05T05:15:02.379Z,100651.70
2023-05-05T05:17:30.784Z,100651.79
2023-05-05T05:20:01.749Z,100649.88
2023-05-05T05:22:31.289Z,100654.23
2023-05-05T05:24:59.687Z,100653.61
2023-05-05T05:27:28.466Z,100653.12
2023-05-05T05:29:57.365Z,100654.52
2023-05-05T05:32:25.830Z,100659.96
2023-05-05T05:34:54.169Z,100660.63
2023-05-05T05:37:22.571Z,100660.86
2023-05-05T05:39:52.395Z,100665.30
2023-05-05T05:42:22.420Z,100669.50
2023-05-05T05:44:56.876Z,100671.70
2023-05-05T05:47:31.111Z,100674.98
2023-05-05T05:50:05.847Z,100672.83
2023-05-05T05:52:36.226Z,100672.02
2023-05-05T05:55:31.109Z,100670.98
2023-05-05T05:58:06.128Z,100676.14
2023-05-05T06:00:37.962Z,100677.08
2023-05-05T06:03:30.777Z,100675.06
2023-05-05T06:05:59.510Z,100674.23
2023-05-05T06:08:27.959Z,100673.61
2023-05-05T06:10:56.384Z,100673.07
2023-05-05T06:13:24.822Z,100676.58
2023-05-05T06:15:53.198Z,100674.04
2023-05-05T06:18:21.714Z,100677.03
2023-05-05T06:20:51.508Z,100679.48
2023-05-05T06:23:20.018Z,100677.49
2023-05-05T06:25:48.415Z,100678.44
2023-05-05T06:28:16.837Z,100675.84
2023-05-05T06:30:45.161Z,100674.85
2023-05-05T06:33:13.437Z,100675.39
2023-05-05T06:35:41.807Z,100674.45
2023-05-05T06:38:10.132Z,100672.69
2023-05-05T06:40:38.575Z,100677.55
2023-05-05T06:43:07.920Z,100679.89
2023-05-05T06:45:36.341Z,100681.52
2023-05-05T06:48:04.907Z,100677.59
2023-05-05T06:50:33.449Z,100677.61
2023-05-05T06:53:01.830Z,100680.59
2023-05-05T06:55:30.937Z,100680.14
2023-05-05T06:57:59.351Z,100677.58
2023-05-05T07:00:27.923Z,100679.82
2023-05-05T07:02:56.325Z,100683.52
2023-05-05T07:05:24.734Z,100682.45
2023-05-05T07:07:55.144Z,100679.33
2023-05-05T07:10:25.523Z,100678.84
2023-05-05T07:12:55.072Z,100680.78
2023-05-05T07:15:28.180Z,100681.95
2023-05-05T07:17:57.775Z,100685.81
2023-05-05T07:29:58.729Z,100680.63
2023-05-05T07:32:27.607Z,100677.89
2023-05-05T07:34:56.254Z,100674.10
2023-05-05T07:37:24.752Z,100678.27
2023-05-05T07:39:53.186Z,100676.15
2023-05-05T07:42:21.550Z,100676.71
2023-05-05T07:44:50.193Z,100674.94
2023-05-05T07:47:18.632Z,100672.43
2023-05-05T07:49:47.031Z,100677.97
2023-05-05T07:52:15.311Z,100673.80
2023-05-05T07:54:45.450Z,100673.20
2023-05-05T08:05:17.937Z,100671.11
2023-05-05T08:07:46.704Z,100667.95
2023-05-05T08:10:15.197Z,100668.48
2023-05-05T08:12:43.579Z,100669.65
2023-05-05T08:15:12.141Z,100668.06
2023-05-05T08:17:52.349Z,100664.36
2023-05-05T08:20:21.296Z,100665.45
2023-05-05T08:22:50.000Z,100660.77
2023-05-05T08:25:18.427Z,100666.15
2023-05-05T08:27:46.831Z,100670.48
2023-05-05T08:30:17.206Z,100672.04
2023-05-05T08:32:45.678Z,100669.63
2023-05-05T08:35:14.195Z,100666.61
2023-05-05T08:37:42.594Z,100669.03
2023-05-05T08:40:14.479Z,100664.99
2023-05-05T08:42:45.584Z,100664.82
2023-05-05T08:45:13.984Z,100663.22
2023-05-05T08:48:34.068Z,100661.47
2023-05-05T08:51:05.621Z,100662.85
2023-05-05T08:54:00.395Z,100667.42
2023-05-05T08:56:38.815Z,100672.05
2023-05-05T08:59:09.668Z,100670.65
2023-05-05T09:01:38.307Z,100667.72
2023-05-05T09:04:09.815Z,100661.29
2023-05-05T09:06:38.782Z,100666.49
2023-05-05T09:09:08.435Z,100661.05
2023-05-05T09:11:38.635Z,100657.79
2023-05-05T09:16:53.646Z,100651.69
2023-05-05T09:19:22.099Z,100646.48
2023-05-05T09:21:50.536Z,100645.73
2023-05-05T09:24:18.950Z,100647.42
2023-05-05T09:26:50.942Z,100643.87
2023-05-05T09:29:21.072Z,100645.95
2023-05-05T09:32:11.291Z,100646.85
2023-05-05T09:34:40.032Z,100645.61
2023-05-05T09:37:08.420Z,100647.34
2023-05-05T09:39:37.064Z,100643.42
2023-05-05T09:42:07.799Z,100642.63
2023-05-05T09:44:43.448Z,100646.27
2023-05-05T09:47:28.483Z,100644.61
2023-05-05T09:50:00.959Z,100644.22
2023-05-05T09:52:30.828Z,100643.95
2023-05-05T09:55:00.442Z,100646.03
2023-05-05T09:57:34.068Z,100644.44
2023-05-05T10:00:04.550Z,100643.20
2023-05-05T10:02:39.192Z,100639.62
2023-05-05T10:05:15.611Z,100643.79
2023-05-05T10:07:47.838Z,100645.98
2023-05-05T10:10:18.449Z,100646.63
2023-05-05T10:12:49.386Z,100639.66
2023-05-05T10:15:18.735Z,100635.63
2023-05-05T10:20:22.677Z,100629.48
2023-05-05T10:22:53.561Z,100628.27
2023-05-05T10:25:33.149Z,100627.63
2023-05-05T10:28:06.714Z,100628.38
2023-05-05T10:34:00.883Z,100628.63
2023-05-05T10:36:30.216Z,100624.62
2023-05-05T10:39:00.276Z,100627.23
2023-05-05T10:41:31.031Z,100625.64
2023-05-05T10:44:01.408Z,100623.55
2023-05-05T10:46:31.874Z,100624.20
2023-05-05T10:49:08.917Z,100621.15
2023-05-05T10:51:55.580Z,100622.31
2023-05-05T10:54:40.223Z,100615.89
2023-05-05T10:57:10.916Z,100614.36
2023-05-05T10:59:42.292Z,100610.94
2023-05-05T11:02:21.417Z,100603.39
2023-05-05T11:05:22.908Z,100604.62
2023-05-05T11:07:52.476Z,100603.84
2023-05-05T11:10:22.968Z,100597.95
2023-05-05T11:13:02.550Z,100596.95
2023-05-05T11:15:31.299Z,100596.38
2023-05-05T11:18:07.553Z,100599.19
2023-05-05T11:20:43.687Z,100599.48
2023-05-05T11:23:13.349Z,100600.70
2023-05-05T11:25:44.667Z,100597.73
2023-05-05T11:28:16.957Z,100599.44
2023-05-05T11:31:00.266Z,100594.48
2023-05-05T11:33:33.540Z,100590.83
2023-05-05T11:36:17.988Z,100588.70
2023-05-05T11:39:05.955Z,100584.80
2023-05-05T11:41:59.160Z,100577.00
2023-05-05T11:44:34.687Z,100569.68
2023-05-05T11:47:06.197Z,100569.83
2023-05-05T11:49:38.192Z,100569.05
2023-05-05T11:52:10.268Z,100566.59
2023-05-05T11:54:41.726Z,100560.95
2023-05-05T11:57:10.190Z,100556.29
2023-05-05T11:59:57.965Z,100555.11
2023-05-05T12:02:28.628Z,100551.29
2023-05-05T12:05:00.094Z,100553.20
2023-05-05T12:07:32.196Z,100555.03
2023-05-05T12:10:01.565Z,100553.55
2023-05-05T12:12:42.788Z,100548.27
2023-05-05T12:15:11.513Z,100547.31
2023-05-05T12:17:46.131Z,100550.91
2023-05-05T12:20:15.225Z,100548.52
2023-05-05T12:22:44.842Z,100546.29
2023-05-05T12:25:14.054Z,100547.80
2023-05-05T12:27:52.262Z,100546.36
2023-05-05T12:30:22.537Z,100544.46
2023-05-05T12:32:51.151Z,100542.54
2023-05-05T12:48:23.818Z,100535.16
2023-05-05T12:50:52.438Z,100531.08
2023-05-05T12:53:25.681Z,100531.48
2023-05-05T12:55:54.256Z,100526.23
2023-05-05T12:58:22.771Z,100520.80
2023-05-05T13:01:10.890Z,100525.51
2023-05-05T13:03:39.432Z,100529.50
2023-05-05T13:06:26.058Z,100524.23
2023-05-05T13:08:54.375Z,100525.73
2023-05-05T13:11:22.777Z,100523.52
2023-05-05T13:13:51.438Z,100522.09
2023-05-05T13:16:19.793Z,100518.19
2023-05-05T13:18:50.222Z,100515.86
2023-05-05T13:21:18.557Z,100510.67
2023-05-05T13:23:46.942Z,100510.43
2023-05-05T13:26:18.397Z,100507.05
2023-05-05T13:28:46.990Z,100501.71
2023-05-05T13:31:15.427Z,100499.10
2023-05-05T13:33:44.316Z,100496.44
2023-05-05T13:36:12.778Z,100493.92
2023-05-05T13:38:41.186Z,100497.94
2023-05-05T13:41:09.770Z,100492.48
2023-05-05T13:43:38.204Z,100493.88
2023-05-05T13:46:19.231Z,100487.92
2023-05-05T13:48:48.749Z,100487.38
2023-05-05T13:51:17.579Z,100485.84
2023-05-05T13:53:46.717Z,100486.91
2023-05-05T13:56:17.834Z,100485.44
2023-05-05T13:58:47.727Z,100482.70
2023-05-05T14:01:16.084Z,100481.61
2023-05-05T14:03:44.506Z,100472.69
2023-05-05T14:06:12.869Z,100470.34
2023-05-05T14:08:41.603Z,100466.13
2023-05-05T14:11:09.999Z,100464.11
2023-05-05T14:13:38.575Z,100460.02
2023-05-05T14:16:07.084Z,100463.17
2023-05-05T14:18:37.122Z,100460.34
2023-05-05T14:21:05.619Z,100459.01
2023-05-05T14:23:34.106Z,100459.79
2023-05-05T14:26:02.960Z,100457.42
2023-05-05T14:28:31.791Z,100455.10
2023-05-05T14:31:00.342Z,100453.37
2023-05-05T14:33:28.702Z,100456.17
2023-05-05T14:35:57.275Z,100452.67
2023-05-05T14:38:25.702Z,100449.55
2023-05-05T14:40:54.277Z,100448.14
2023-05-05T14:43:22.620Z,100446.68
2023-05-05T14:45:54.468Z,100443.85
2023-05-05T14:48:22.876Z,100441.48
2023-05-05T14:50:51.227Z,100442.84
2023-05-05T14:53:19.594Z,100441.58
2023-05-05T14:55:48.166Z,100438.83
2023-05-05T14:58:18.815Z,100434.42
2023-05-05T15:00:47.104Z,100435.95
2023-05-05T15:03:16.006Z,100434.77
2023-05-05T15:05:44.484Z,100434.28
2023-05-05T15:08:14.482Z,100431.09
2023-05-05T15:10:42.861Z,100428.64
2023-05-05T15:13:11.321Z,100429.99
2023-05-05T15:15:39.791Z,100429.89
2023-05-05T15:18:08.523Z,100423.70
2023-05-05T15:20:37.072Z,100418.38
2023-05-05T15:23:05.671Z,100418.42
2023-05-05T15:25:34.046Z,100421.23
2023-05-05T15:28:02.459Z,100418.34
2023-05-05T15:30:31.017Z,100419.02
2023-05-05T15:32:59.539Z,100417.99
2023-05-05T15:35:27.948Z,100415.27
2023-05-05T15:37:56.333Z,100413.79
2023-05-05T15:40:24.916Z,100410.62
2023-05-05T15:42:53.546Z,100407.83
2023-05-05T15:45:21.898Z,100410.59
2023-05-05T15:47:50.837Z,100408.79
2023-05-05T15:50:20.042Z,100409.45
2023-05-05T15:52:49.976Z,100407.54
2023-05-05T15:55:18.502Z,100405.26
2023-05-05T15:57:46.864Z,100405.66
2023-05-05T16:00:16.200Z,100406.07
2023-05-05T16:02:45.155Z,100404.64
2023-05-05T16:05:13.886Z,100399.70
2023-05-05T16:07:42.451Z,100397.09
2023-05-05T16:10:10.860Z,100393.85
2023-05-05T16:12:39.417Z,100394.25
2023-05-05T16:15:08.811Z,100391.73
2023-05-05T16:17:37.544Z,100393.66
2023-05-05T16:20:06.633Z,100392.16
2023-05-05T16:22:35.015Z,100390.70
2023-05-05T16:25:03.863Z,100388.77
2023-05-05T16:27:32.264Z,100387.96
2023-05-05T16:30:00.790Z,100386.97
2023-05-05T16:32:29.354Z,100385.47
2023-05-05T16:34:57.711Z,100384.14
2023-05-05T16:37:26.087Z,100378.85
2023-05-05T16:39:54.504Z,100377.73
2023-05-05T16:42:23.310Z,100372.33
2023-05-05T16:44:51.647Z,100368.69
2023-05-05T16:47:20.041Z,100369.79
2023-05-05T16:49:48.459Z,100365.81
2023-05-05T16:52:16.877Z,100364.54
2023-05-05T16:54:45.303Z,100365.20
2023-05-05T16:57:13.791Z,100365.48
2023-05-05T16:59:42.148Z,100365.96
2023-05-05T17:02:10.663Z,100366.94
2023-05-05T17:04:38.996Z,100366.77
2023-05-05T17:07:07.594Z,100368.09
2023-05-05T17:09:35.960Z,100365.55
2023-05-05T17:12:04.809Z,100367.64
2023-05-05T17:14:33.666Z,100369.95
2023-05-05T17:17:02.111Z,100371.63
2023-05-05T17:19:30.653Z,100375.30
2023-05-05T17:21:59.027Z,100374.52
2023-05-05T17:24:27.438Z,100377.42
2023-05-05T17:26:55.876Z,100381.39
2023-05-05T17:29:24.350Z,100387.35
2023-05-05T17:31:54.099Z,100391.27
2023-05-05T17:34:22.744Z,100391.15
2023-05-05T17:36:51.096Z,100395.15
2023-05-05T17:39:19.535Z,100398.30
2023-05-05T17:41:47.858Z,100395.21
2023-05-05T17:44:16.198Z,100396.60
2023-05-05T17:46:44.573Z,100395.27
2023-05-05T17:49:12.868Z,100396.52
2023-05-05T17:51:41.207Z,100397.61
2023-05-05T17:54:09.685Z,100400.82
2023-05-05T17:56:38.101Z,100402.94
2023-05-05T17:59:06.413Z,100398.02
2023-05-05T18:01:35.256Z,100401.62
2023-05-05T18:04:03.843Z,100398.38
2023-05-05T18:06:32.249Z,100399.79
2023-05-05T18:09:00.639Z,100397.68
2023-05-05T18:11:30.912Z,100400.86
2023-05-05T18:13:59.365Z,100402.66
2023-05-05T18:16:27.633Z,100407.59
2023-05-05T18:18:56.020Z,100408.34
2023-05-05T18:21:24.421Z,100409.60
2023-05-05T18:23:57.274Z,100412.57
2023-05-05T18:26:30.244Z,100415.39
2023-05-05T18:28:58.572Z,100421.36
2023-05-05T18:31:29.941Z,100421.99
2023-05-05T18:33:58.455Z,100431.77
2023-05-05T18:36:29.300Z,100429.35
2023-05-05T18:38:57.616Z,100428.70
2023-05-05T18:41:25.908Z,100438.29
2023-05-05T18:43:54.260Z,100440.29
2023-05-05T18:46:22.782Z,100440.88
2023-05-05T18:48:51.184Z,100439.98
2023-05-05T18:51:19.492Z,100449.27
2023-05-05T18:53:47.907Z,100452.38
2023-05-05T18:56:16.305Z,100455.97
2023-05-05T18:58:44.612Z,100456.02
2023-05-05T19:01:13.036Z,100455.63
2023-05-05T19:03:41.469Z,100459.39
2023-05-05T19:06:09.846Z,100455.91
2023-05-05T19:08:38.222Z,100458.36
2023-05-05T19:11:06.700Z,100456.77
2023-05-05T19:13:35.049Z,100454.20
2023-05-05T19:16:03.716Z,100453.04
2023-05-05T19:18:32.644Z,100453.27
2023-05-05T19:21:01.949Z,100449.38
2023-05-05T19:23:30.929Z,100455.02
2023-05-05T19:25:59.327Z,100458.63
2023-05-05T19:28:27.660Z,100457.98
2023-05-05T19:30:56.159Z,100455.90
2023-05-05T19:33:24.493Z,100455.30
2023-05-05T19:35:52.905Z,100454.92
2023-05-05T19:38:21.280Z,100454.24
2023-05-05T19:40:49.707Z,100450.20
2023-05-05T19:43:18.030Z,100445.15
2023-05-05T19:45:46.477Z,100440.25
2023-05-05T19:48:14.963Z,100439.77
2023-05-05T19:50:43.346Z,100444.09
2023-05-05T19:53:11.638Z,100444.79
2023-05-05T19:55:40.050Z,100445.47
2023-05-05T19:58:08.466Z,100443.96
2023-05-05T20:00:36.895Z,100445.06
2023-05-05T20:03:06.912Z,100442.48
2023-05-05T20:05:36.650Z,100447.85
2023-05-05T20:08:05.748Z,100446.42
2023-05-05T20:10:34.566Z,100447.40
2023-05-05T20:13:02.985Z,100446.75
2023-05-05T20:15:31.949Z,100447.90
2023-05-05T20:18:01.775Z,100444.43
2023-05-05T20:20:30.474Z,100445.58
2023-05-05T20:22:58.862Z,100442.08
2023-05-05T20:25:27.298Z,100441.48
2023-05-05T20:27:56.916Z,100435.41
2023-05-05T20:30:25.249Z,100431.41
2023-05-05T20:32:54.357Z,100430.53
2023-05-05T20:35:22.920Z,100430.31
2023-05-05T20:37:51.487Z,100426.89
2023-05-05T20:40:19.843Z,100420.00
2023-05-05T20:42:48.136Z,100414.31
2023-05-05T20:45:16.449Z,100410.45
2023-05-05T20:47:44.807Z,100410.62
2023-05-05T20:50:13.326Z,100410.02
2023-05-05T20:52:42.139Z,100408.73
2023-05-05T20:55:10.609Z,100408.81
2023-05-05T20:57:39.198Z,100410.92
2023-05-05T21:00:09.125Z,100411.20
2023-05-05T21:02:37.966Z,100406.13
2023-05-05T21:05:07.122Z,100402.63
2023-05-05T21:07:35.519Z,100400.53
2023-05-05T21:10:04.998Z,100397.08
2023-05-05T21:12:34.651Z,100400.58
2023-05-05T21:15:03.356Z,100401.38
2023-05-05T21:17:31.752Z,100405.17
2023-05-05T21:20:00.483Z,100405.72
2023-05-05T21:22:28.826Z,100402.52
2023-05-05T21:25:32.845Z,100401.52
2023-05-05T21:28:01.148Z,100398.50
2023-05-05T21:30:29.648Z,100398.05
2023-05-05T21:32:58.207Z,100395.85
2023-05-05T21:35:26.574Z,100399.86
2023-05-05T21:37:54.918Z,100399.81
2023-05-05T21:40:23.289Z,100402.10
2023-05-05T21:42:51.577Z,100402.74
2023-05-05T21:45:20.379Z,100405.04
2023-05-05T21:47:48.840Z,100404.52
2023-05-05T21:50:17.261Z,100402.25
2023-05-05T21:52:45.661Z,100407.14
2023-05-05T21:55:14.071Z,100408.54
2023-05-05T21:57:42.372Z,100413.83
2023-05-05T22:00:16.664Z,100408.45
2023-05-05T22:02:45.579Z,100410.38
2023-05-05T22:05:14.162Z,100413.00
2023-05-05T22:07:42.454Z,100405.63
2023-05-05T22:10:11.404Z,100407.41
2023-05-05T22:12:40.721Z,100409.50
2023-05-05T22:15:10.051Z,100410.72
2023-05-05T22:17:38.890Z,100408.95
2023-05-05T22:20:09.357Z,100408.95
2023-05-05T22:22:37.852Z,100409.79
2023-05-05T22:25:06.937Z,100400.38
2023-05-05T22:27:35.348Z,100400.48
2023-05-05T22:30:04.213Z,100391.08
2023-05-05T22:32:32.608Z,100392.99
2023-05-05T22:35:01.424Z,100387.90
2023-05-05T22:37:29.929Z,100388.20
2023-05-05T22:39:58.421Z,100386.77
2023-05-05T22:42:26.851Z,100388.48
2023-05-05T22:44:55.266Z,100385.86
2023-05-05T22:47:23.677Z,100384.14
2023-05-05T22:49:52.139Z,100380.96
2023-05-05T22:52:20.523Z,100382.00
2023-05-05T22:54:48.851Z,100384.52
2023-05-05T22:57:17.202Z,100383.43
2023-05-05T22:59:45.565Z,100386.38
2023-05-05T23:02:13.974Z,100390.88
2023-05-05T23:04:44.898Z,100393.64
2023-05-05T23:07:13.748Z,100393.98
2023-05-05T23:09:42.201Z,100388.23
2023-05-05T23:12:10.902Z,100389.78
2023-05-05T23:14:39.391Z,100389.05
2023-05-05T23:17:07.920Z,100387.92
2023-05-05T23:19:37.047Z,100386.36
2023-05-05T23:22:05.549Z,100385.92
2023-05-05T23:24:33.983Z,100388.80
2023-05-05T23:27:03.047Z,100384.67
2023-05-05T23:29:31.710Z,100386.78
2023-05-05T23:32:00.034Z,100378.52
2023-05-05T23:34:28.378Z,100378.42
2023-05-05T23:36:57.189Z,100374.38
2023-05-05T23:39:25.512Z,100373.20
2023-05-05T23:41:53.872Z,100371.17
2023-05-05T23:44:22.162Z,100369.97
2023-05-05T23:46:50.512Z,100368.58
2023-05-05T23:49:18.845Z,100363.81
2023-05-05T23:51:47.145Z,100355.79
2023-05-05T23:54:15.736Z,100352.31
2023-05-05T23:56:44.098Z,100349.14
2023-05-05T23:59:12.500Z,100346.29
